Time;durP1;ratioP1;P1;durP2;ratioP2;P2;SDS_P1;SDS_P2;PMS_P1;PMS_P2;Temp;Humidity;BMP_temperature;BMP_pressure;BME280_temperature;BME280_humidity;BME280_pressure;Samples;Min_cycle;Max_cycle;Signal;HPM_P1;HPM_P2
2023/03/20 00:00:30;;;;;;;4.80;4.07;;;;;;;;;;1023465;29;20054;-80
2023/03/20 00:01:01;;;;;;;5.07;3.70;;;;;;;;;;1023517;29;20027;-79
2023/03/20 00:01:32;;;;;;;5.60;4.43;;;;;;;;;;1025065;28;20376;-79
2023/03/20 00:02:04;;;;;;;5.10;3.78;;;;;;;;;;1027381;28;20289;-79
2023/03/20 00:02:37;;;;;;;4.82;4.28;;;;;;;;;;1027249;28;20031;-80
2023/03/20 00:03:10;;;;;;;5.00;4.43;;;;;;;;;;1027368;28;20058;-79
2023/03/20 00:03:41;;;;;;;5.65;4.22;;;;;;;;;;1022982;29;20023;-78
2023/03/20 00:04:12;;;;;;;5.28;4.32;;;;;;;;;;1023578;29;20086;-79
2023/03/20 00:04:43;;;;;;;4.87;4.17;;;;;;;;;;1023848;29;20173;-80
2023/03/20 00:05:17;;;;;;;7.10;4.43;;;;;;;;;;1023463;29;20306;-81
2023/03/20 00:05:50;;;;;;;6.18;4.35;;;;;;;;;;1023852;28;20122;-81
2023/03/20 00:06:22;;;;;;;5.13;4.00;;;;;;;;;;1027201;28;20023;-81
2023/03/20 00:06:53;;;;;;;4.32;3.58;;;;;;;;;;1027522;28;20022;-80
2023/03/20 00:07:24;;;;;;;4.05;3.58;;;;;;;;;;1027155;28;20053;-81
2023/03/20 00:07:56;;;;;;;4.63;3.42;;;;;;;;;;1027297;28;20187;-80
2023/03/20 00:08:27;;;;;;;4.70;3.65;;;;;;;;;;1023196;29;20039;-80
2023/03/20 00:08:58;;;;;;;5.07;4.22;;;;;;;;;;1023420;29;20921;-79
2023/03/20 00:09:30;;;;;;;4.88;3.50;;;;;;;;;;1019796;29;20575;-80
2023/03/20 00:10:01;;;;;;;4.75;3.65;;;;;;;;;;1023577;29;20728;-80
2023/03/20 00:10:35;;;;;;;5.47;3.22;;;;;;;;;;1024102;28;20108;-80
2023/03/20 00:11:06;;;;;;;5.45;3.72;;;;;;;;;;1026754;28;20026;-80
2023/03/20 00:11:40;;;;;;;4.88;3.88;;;;;;;;;;1023332;29;20549;-79
2023/03/20 00:12:16;;;;;;;5.35;3.85;;;;;;;;;;1024552;28;20400;-79
2023/03/20 00:12:48;;;;;;;5.28;3.67;;;;;;;;;;1026014;28;20058;-80
2023/03/20 00:13:24;;;;;;;4.88;3.90;;;;;;;;;;1023791;29;20019;-79
2023/03/20 00:14:04;;;;;;;4.15;3.63;;;;;;;;;;1027422;28;20012;-80
2023/03/20 00:14:35;;;;;;;4.60;3.50;;;;;;;;;;1027328;28;20494;-80
2023/03/20 00:15:14;;;;;;;5.17;3.90;;;;;;;;;;1027859;28;20031;-81
2023/03/20 00:15:45;;;;;;;;;;;;;;;;;;1024857;28;20278;-81
2023/03/20 00:16:16;;;;;;;3.73;3.33;;;;;;;;;;1023842;29;19903;-80
2023/03/20 00:16:48;;;;;;;5.10;3.80;;;;;;;;;;1023785;29;20102;-79
2023/03/20 00:17:20;;;;;;;6.43;4.32;;;;;;;;;;1024355;29;20019;-80
2023/03/20 00:17:51;;;;;;;5.38;3.90;;;;;;;;;;1023608;28;20460;-80
2023/03/20 00:18:25;;;;;;;5.25;4.25;;;;;;;;;;1027421;28;20117;-80
2023/03/20 00:18:56;;;;;;;5.53;3.75;;;;;;;;;;1023176;29;20015;-81
2023/03/20 00:19:29;;;;;;;6.43;4.28;;;;;;;;;;1019498;29;20597;-80
2023/03/20 00:20:00;;;;;;;6.20;4.35;;;;;;;;;;1015551;29;20028;-81
2023/03/20 00:20:31;;;;;;;4.83;4.30;;;;;;;;;;1012138;29;20029;-80
2023/03/20 00:21:02;;;;;;;5.38;3.97;;;;;;;;;;1011970;29;20271;-80
2023/03/20 00:21:33;;;;;;;5.20;4.07;;;;;;;;;;1015562;29;20150;-80
2023/03/20 00:22:04;;;;;;;5.72;4.07;;;;;;;;;;1015557;29;20024;-79
2023/03/20 00:22:35;;;;;;;6.43;4.00;;;;;;;;;;1015873;29;20031;-80
2023/03/20 00:23:06;;;;;;;4.93;4.40;;;;;;;;;;1019570;29;20075;-81
2023/03/20 00:23:37;;;;;;;5.15;4.10;;;;;;;;;;1023842;28;20263;-80
2023/03/20 00:24:08;;;;;;;4.55;3.58;;;;;;;;;;1027120;28;20023;-80
2023/03/20 00:24:39;;;;;;;5.78;3.90;;;;;;;;;;1026578;28;20082;-80
2023/03/20 00:25:14;;;;;;;5.32;4.18;;;;;;;;;;1027400;28;20066;-80
2023/03/20 00:25:46;;;;;;;3.65;3.30;;;;;;;;;;1023273;29;20127;-80
2023/03/20 00:26:18;;;;;;;4.78;4.05;;;;;;;;;;1023064;29;20024;-80
2023/03/20 00:26:50;;;;;;;4.05;3.65;;;;;;;;;;1024334;28;20039;-81
2023/03/20 00:27:21;;;;;;;5.45;3.90;;;;;;;;;;1027449;28;20019;-80
2023/03/20 00:27:52;;;;;;;5.38;3.90;;;;;;;;;;1027536;28;20011;-81
2023/03/20 00:28:37;;;;;;;5.20;4.30;;;;;;;;;;1026777;28;20045;-81
2023/03/20 00:29:25;;;;;;;4.97;4.35;;;;;;;;;;1023600;28;20019;-81
2023/03/20 00:29:56;;;;;;;;;;;;;;;;;;1028080;28;20741;-80
2023/03/20 00:30:28;;;;;;;5.30;3.73;;;;;;;;;;1027147;28;20461;-81
2023/03/20 00:30:59;;;;;;;4.95;4.45;;;;;;;;;;1027283;28;20042;-80
2023/03/20 00:31:31;;;;;;;5.35;4.32;;;;;;;;;;1026124;28;20138;-80
2023/03/20 00:32:02;;;;;;;6.60;4.63;;;;;;;;;;1025717;28;20083;-80
2023/03/20 00:32:33;;;;;;;5.60;3.83;;;;;;;;;;1027063;28;20126;-80
2023/03/20 00:33:05;;;;;;;4.20;3.42;;;;;;;;;;1023389;28;20299;-81
2023/03/20 00:33:37;;;;;;;4.88;4.32;;;;;;;;;;1019122;29;20071;-81
2023/03/20 00:34:13;;;;;;;6.10;4.85;;;;;;;;;;1015496;29;20039;-79
2023/03/20 00:34:44;;;;;;;5.43;4.22;;;;;;;;;;1015227;29;20027;-80
2023/03/20 00:35:35;;;;;;;6.07;4.07;;;;;;;;;;1015684;29;20770;-80
2023/03/20 00:36:08;;;;;;;5.30;4.78;;;;;;;;;;1020261;29;20043;-79
2023/03/20 00:36:39;;;;;;;5.90;4.35;;;;;;;;;;1022239;29;20035;-80
2023/03/20 00:37:11;;;;;;;5.63;4.28;;;;;;;;;;1019348;29;20203;-79
2023/03/20 00:37:42;;;;;;;6.05;4.90;;;;;;;;;;1015226;29;20024;-80
2023/03/20 00:38:13;;;;;;;7.05;5.18;;;;;;;;;;1015833;29;20028;-79
2023/03/20 00:38:44;;;;;;;5.32;4.35;;;;;;;;;;1019429;29;20234;-79
2023/03/20 00:39:15;;;;;;;5.53;4.30;;;;;;;;;;1023251;29;20027;-80
2023/03/20 00:39:46;;;;;;;6.20;4.37;;;;;;;;;;1019266;29;20083;-79
2023/03/20 00:40:17;;;;;;;5.72;4.63;;;;;;;;;;1019343;29;20276;-81
2023/03/20 00:40:48;;;;;;;5.80;4.40;;;;;;;;;;1015474;29;20478;-80
2023/03/20 00:41:25;;;;;;;4.97;4.43;;;;;;;;;;1011244;29;20716;-82
2023/03/20 00:41:56;;;;;;;6.28;4.63;;;;;;;;;;1015331;29;20024;-80
2023/03/20 00:42:27;;;;;;;5.37;4.50;;;;;;;;;;1016386;29;20028;-79
2023/03/20 00:43:03;;;;;;;5.65;4.70;;;;;;;;;;1020259;29;20270;-80
2023/03/20 00:43:34;;;;;;;4.70;4.20;;;;;;;;;;1020324;29;20028;-79
2023/03/20 00:44:11;;;;;;;5.40;4.70;;;;;;;;;;1023502;29;20036;-80
2023/03/20 00:44:47;;;;;;;4.20;3.80;;;;;;;;;;1023105;28;20368;-80
2023/03/20 00:45:20;;;;;;;7.35;5.30;;;;;;;;;;1024787;28;20041;-80
2023/03/20 00:45:51;;;;;;;4.82;4.30;;;;;;;;;;1027363;28;20746;-81
2023/03/20 00:46:22;;;;;;;6.00;4.15;;;;;;;;;;1027167;28;20352;-80
2023/03/20 00:46:54;;;;;;;6.82;5.07;;;;;;;;;;1026843;28;20038;-80
2023/03/20 00:47:25;;;;;;;5.78;4.80;;;;;;;;;;1023239;29;20550;-81
2023/03/20 00:47:57;;;;;;;5.82;4.95;;;;;;;;;;1023377;29;20050;-81
2023/03/20 00:48:28;;;;;;;5.28;4.78;;;;;;;;;;1023287;29;20172;-81
2023/03/20 00:49:00;;;;;;;5.20;4.70;;;;;;;;;;1023397;29;20057;-82
2023/03/20 00:49:33;;;;;;;5.93;4.95;;;;;;;;;;1023043;29;20041;-81
2023/03/20 00:50:07;;;;;;;6.03;4.63;;;;;;;;;;1019332;29;20027;-81
2023/03/20 00:50:38;;;;;;;6.15;4.95;;;;;;;;;;1024162;28;20875;-81
2023/03/20 00:51:09;;;;;;;5.70;4.72;;;;;;;;;;1027860;28;20023;-81
2023/03/20 00:51:41;;;;;;;5.25;4.75;;;;;;;;;;1020226;29;20426;-81
2023/03/20 00:52:12;;;;;;;5.63;4.50;;;;;;;;;;1023362;29;20482;-81
2023/03/20 00:52:43;;;;;;;5.32;4.82;;;;;;;;;;1019053;29;20569;-80
2023/03/20 00:53:14;;;;;;;4.80;3.90;;;;;;;;;;1019557;29;20122;-80
2023/03/20 00:53:45;;;;;;;5.18;4.57;;;;;;;;;;1023241;29;20087;-81
2023/03/20 00:54:17;;;;;;;5.90;4.53;;;;;;;;;;1023417;29;20031;-81
2023/03/20 00:54:48;;;;;;;6.28;4.93;;;;;;;;;;1023186;29;20100;-82
2023/03/20 00:55:20;;;;;;;6.10;4.65;;;;;;;;;;1026975;28;20035;-81
2023/03/20 00:55:51;;;;;;;5.85;4.55;;;;;;;;;;1027171;28;20031;-81
2023/03/20 00:56:22;;;;;;;5.40;4.90;;;;;;;;;;1027007;28;20101;-80
2023/03/20 00:56:59;;;;;;;5.03;4.50;;;;;;;;;;1026487;28;20027;-81
2023/03/20 00:57:39;;;;;;;5.72;4.63;;;;;;;;;;1022817;29;20317;-81
2023/03/20 00:58:10;;;;;;;5.25;4.63;;;;;;;;;;1022669;28;20478;-81
2023/03/20 00:58:41;;;;;;;7.13;4.97;;;;;;;;;;1025217;28;20483;-80
2023/03/20 00:59:23;;;;;;;5.38;4.50;;;;;;;;;;1027268;28;20027;-80
2023/03/20 00:59:54;;;;;;;5.20;4.70;;;;;;;;;;1026526;28;20473;-80
2023/03/20 01:00:37;;;;;;;7.00;4.53;;;;;;;;;;1021096;29;20438;-80
2023/03/20 01:01:08;;;;;;;6.97;4.68;;;;;;;;;;1022817;28;20263;-80
2023/03/20 01:01:39;;;;;;;5.47;4.60;;;;;;;;;;1021177;29;20050;-80
2023/03/20 01:02:10;;;;;;;6.70;4.93;;;;;;;;;;1020736;29;20028;-80
2023/03/20 01:02:41;;;;;;;4.97;4.13;;;;;;;;;;1023210;29;20263;-80
2023/03/20 01:03:19;;;;;;;5.03;4.53;;;;;;;;;;1023028;28;20023;-80
2023/03/20 01:03:50;;;;;;;5.57;4.55;;;;;;;;;;1026794;28;20027;-80
2023/03/20 01:04:21;;;;;;;5.30;4.45;;;;;;;;;;1026982;28;20062;-79
2023/03/20 01:04:52;;;;;;;5.77;4.87;;;;;;;;;;1023382;28;20117;-80
2023/03/20 01:05:24;;;;;;;4.95;4.45;;;;;;;;;;1019446;29;20275;-79
2023/03/20 01:05:56;;;;;;;4.88;4.15;;;;;;;;;;1023577;28;20047;-80
2023/03/20 01:06:28;;;;;;;6.40;5.03;;;;;;;;;;1026845;28;20045;-80
2023/03/20 01:07:00;;;;;;;6.15;4.70;;;;;;;;;;1027142;28;20051;-80
2023/03/20 01:07:31;;;;;;;6.10;4.40;;;;;;;;;;1026197;28;20039;-80
2023/03/20 01:08:03;;;;;;;5.63;4.20;;;;;;;;;;1027097;28;20042;-79
2023/03/20 01:08:34;;;;;;;4.70;4.20;;;;;;;;;;1026801;28;20110;-80
2023/03/20 01:09:05;;;;;;;5.93;5.07;;;;;;;;;;1024184;28;20027;-81
2023/03/20 01:09:36;;;;;;;5.50;4.85;;;;;;;;;;1023437;29;20039;-80
2023/03/20 01:10:07;;;;;;;4.68;4.05;;;;;;;;;;1019736;29;20103;-79
2023/03/20 01:10:38;;;;;;;5.22;4.72;;;;;;;;;;1021919;28;20023;-79
2023/03/20 01:11:10;;;;;;;6.00;4.80;;;;;;;;;;1027151;28;20039;-79
2023/03/20 01:11:44;;;;;;;4.80;4.20;;;;;;;;;;1026898;28;20146;-80
2023/03/20 01:12:15;;;;;;;5.40;4.90;;;;;;;;;;1026441;28;20046;-80
2023/03/20 01:12:46;;;;;;;5.18;4.45;;;;;;;;;;1023174;29;20663;-79
2023/03/20 01:13:22;;;;;;;5.40;4.88;;;;;;;;;;1022708;29;20024;-81
2023/03/20 01:13:53;;;;;;;5.03;4.28;;;;;;;;;;1019207;29;20059;-80
2023/03/20 01:14:25;;;;;;;5.00;4.50;;;;;;;;;;1018973;29;20050;-79
2023/03/20 01:14:57;;;;;;;7.00;4.70;;;;;;;;;;1020056;29;20032;-80
2023/03/20 01:15:31;;;;;;;5.53;4.18;;;;;;;;;;1023190;28;20126;-80
2023/03/20 01:16:01;;;;;;;5.82;4.32;;;;;;;;;;1026977;28;20027;-80
2023/03/20 01:16:32;;;;;;;4.90;4.27;;;;;;;;;;1022668;29;20031;-79
2023/03/20 01:17:03;;;;;;;5.07;4.57;;;;;;;;;;1023022;29;20490;-80
2023/03/20 01:17:34;;;;;;;5.50;4.22;;;;;;;;;;1018912;29;20757;-80
2023/03/20 01:18:05;;;;;;;4.43;3.80;;;;;;;;;;1015381;29;20111;-80
2023/03/20 01:18:37;;;;;;;6.70;5.10;;;;;;;;;;1018326;29;20099;-80
2023/03/20 01:19:13;;;;;;;6.35;4.45;;;;;;;;;;1015182;29;20028;-80
2023/03/20 01:19:44;;;;;;;5.65;4.88;;;;;;;;;;1019799;29;20087;-79
2023/03/20 01:20:20;;;;;;;4.75;4.25;;;;;;;;;;1023373;29;20748;-80
2023/03/20 01:20:51;;;;;;;5.88;4.53;;;;;;;;;;1020026;29;20019;-80
2023/03/20 01:21:22;;;;;;;4.75;4.25;;;;;;;;;;1022773;29;20019;-80
2023/03/20 01:21:54;;;;;;;5.53;4.93;;;;;;;;;;1018585;29;20119;-79
2023/03/20 01:22:25;;;;;;;5.38;4.55;;;;;;;;;;1018947;29;20020;-80
2023/03/20 01:22:56;;;;;;;6.00;4.77;;;;;;;;;;1019056;29;20047;-80
2023/03/20 01:23:27;;;;;;;6.03;5.15;;;;;;;;;;1019101;29;21054;-80
2023/03/20 01:23:58;;;;;;;6.50;4.93;;;;;;;;;;1019243;29;20391;-80
2023/03/20 01:24:29;;;;;;;5.03;4.37;;;;;;;;;;1018360;29;20744;-79
2023/03/20 01:25:01;;;;;;;5.43;4.90;;;;;;;;;;1018454;29;20264;-81
2023/03/20 01:25:32;;;;;;;4.93;4.32;;;;;;;;;;1019319;29;20266;-81
2023/03/20 01:26:03;;;;;;;4.65;4.05;;;;;;;;;;1023039;28;20026;-81
2023/03/20 01:26:36;;;;;;;6.57;4.78;;;;;;;;;;1023381;29;20015;-81
2023/03/20 01:27:17;;;;;;;5.68;4.57;;;;;;;;;;1023887;29;20019;-80
2023/03/20 01:27:52;;;;;;;6.63;5.20;;;;;;;;;;1023813;29;20134;-80
2023/03/20 01:28:23;;;;;;;6.07;4.85;;;;;;;;;;1027185;28;20030;-80
2023/03/20 01:28:54;;;;;;;5.75;4.82;;;;;;;;;;1027120;28;20054;-81
2023/03/20 01:29:26;;;;;;;4.85;4.35;;;;;;;;;;1026723;28;20019;-80
2023/03/20 01:29:57;;;;;;;5.82;4.68;;;;;;;;;;1027148;28;20022;-81
2023/03/20 01:30:30;;;;;;;4.78;4.30;;;;;;;;;;1027175;28;20026;-79
2023/03/20 01:31:01;;;;;;;4.90;4.35;;;;;;;;;;1023228;28;20024;-79
2023/03/20 01:31:32;;;;;;;6.65;4.75;;;;;;;;;;1018609;29;20043;-80
2023/03/20 01:32:03;;;;;;;5.35;4.15;;;;;;;;;;1019249;29;20015;-80
2023/03/20 01:32:34;;;;;;;6.25;4.68;;;;;;;;;;1019235;28;20593;-79
2023/03/20 01:33:12;;;;;;;5.13;4.50;;;;;;;;;;1027192;28;20058;-79
2023/03/20 01:33:44;;;;;;;5.90;4.57;;;;;;;;;;1023329;29;20345;-80
2023/03/20 01:34:15;;;;;;;5.57;4.13;;;;;;;;;;1023261;29;20047;-79
2023/03/20 01:34:46;;;;;;;5.45;4.55;;;;;;;;;;1026797;28;20692;-79
2023/03/20 01:35:19;;;;;;;6.35;4.43;;;;;;;;;;1027144;28;20746;-80
2023/03/20 01:35:51;;;;;;;6.10;4.65;;;;;;;;;;1027082;28;20089;-80
2023/03/20 01:36:23;;;;;;;6.13;4.43;;;;;;;;;;1022929;28;20105;-80
2023/03/20 01:36:56;;;;;;;6.85;4.68;;;;;;;;;;1019200;29;20023;-80
2023/03/20 01:37:27;;;;;;;4.63;4.05;;;;;;;;;;1019547;29;20026;-80
2023/03/20 01:37:58;;;;;;;5.15;4.40;;;;;;;;;;1021565;28;20139;-80
2023/03/20 01:38:29;;;;;;;5.88;4.57;;;;;;;;;;1019134;29;20371;-80
2023/03/20 01:39:00;;;;;;;6.07;4.47;;;;;;;;;;1018932;29;20050;-80
2023/03/20 01:39:33;;;;;;;4.85;4.10;;;;;;;;;;1019012;29;20064;-79
2023/03/20 01:40:09;;;;;;;6.00;4.35;;;;;;;;;;1023358;29;20138;-80
2023/03/20 01:40:45;;;;;;;6.03;4.57;;;;;;;;;;1023050;29;20118;-80
2023/03/20 01:41:17;;;;;;;4.55;3.67;;;;;;;;;;1025090;28;20042;-80
2023/03/20 01:41:48;;;;;;;5.03;4.35;;;;;;;;;;1022869;29;20035;-80
2023/03/20 01:42:19;;;;;;;5.22;4.30;;;;;;;;;;1019936;29;20583;-80
2023/03/20 01:42:52;;;;;;;5.43;4.53;;;;;;;;;;1014809;29;20040;-80
2023/03/20 01:43:24;;;;;;;4.78;3.95;;;;;;;;;;1015757;29;20203;-80
2023/03/20 01:43:55;;;;;;;4.40;3.75;;;;;;;;;;1019180;29;20085;-80
2023/03/20 01:44:30;;;;;;;5.27;3.90;;;;;;;;;;1019287;29;20111;-80
2023/03/20 01:45:02;;;;;;;4.80;3.90;;;;;;;;;;1024175;28;20275;-80
2023/03/20 01:45:34;;;;;;;4.30;3.70;;;;;;;;;;1027203;28;20026;-80
2023/03/20 01:46:08;;;;;;;4.28;3.42;;;;;;;;;;1027400;28;20035;-80
2023/03/20 01:46:39;;;;;;;4.53;3.42;;;;;;;;;;1026002;28;20469;-80
2023/03/20 01:47:16;;;;;;;4.28;3.55;;;;;;;;;;1022872;29;20034;-80
2023/03/20 01:47:47;;;;;;;4.72;3.50;;;;;;;;;;1023154;29;20027;-80
2023/03/20 01:48:18;;;;;;;5.90;3.55;;;;;;;;;;1023554;28;20024;-80
2023/03/20 01:48:49;;;;;;;6.38;3.72;;;;;;;;;;1027190;28;20027;-81
2023/03/20 01:49:20;;;;;;;5.90;3.90;;;;;;;;;;1026926;28;20088;-80
2023/03/20 01:50:10;;;;;;;5.55;3.78;;;;;;;;;;1026762;28;20697;-80
2023/03/20 01:50:41;;;;;;;5.63;3.58;;;;;;;;;;1023295;29;20032;-80
2023/03/20 01:51:12;;;;;;;3.83;3.30;;;;;;;;;;1026953;28;20034;-80
2023/03/20 01:51:43;;;;;;;4.15;3.53;;;;;;;;;;1027464;28;20022;-80
2023/03/20 01:52:14;;;;;;;4.63;3.73;;;;;;;;;;1022853;29;20043;-80
2023/03/20 01:52:46;;;;;;;4.70;3.35;;;;;;;;;;1022652;29;20271;-79
2023/03/20 01:53:20;;;;;;;3.85;3.28;;;;;;;;;;1022848;28;20043;-79
2023/03/20 01:53:54;;;;;;;5.20;3.55;;;;;;;;;;1019631;29;20039;-80
2023/03/20 01:54:36;;;;;;;5.10;3.33;;;;;;;;;;1022959;28;20027;-79
2023/03/20 01:55:07;;;;;;;4.03;3.28;;;;;;;;;;1023030;28;20038;-80
2023/03/20 01:55:39;;;;;;;3.63;3.15;;;;;;;;;;1022988;29;20419;-82
2023/03/20 01:56:11;;;;;;;3.88;3.25;;;;;;;;;;1027311;28;20030;-80
2023/03/20 01:57:06;;;;;;;4.13;3.30;;;;;;;;;;1026948;28;20110;-81
2023/03/20 01:57:37;;;;;;;6.35;3.47;;;;;;;;;;1017385;29;20551;-80
2023/03/20 01:58:12;;;;;;;3.80;3.40;;;;;;;;;;1021784;29;20031;-82
2023/03/20 01:58:46;;;;;;;3.50;2.83;;;;;;;;;;1014955;29;20032;-79
2023/03/20 01:59:20;;;;;;;4.50;3.30;;;;;;;;;;1016507;29;20405;-79
2023/03/20 02:00:02;;;;;;;5.20;3.50;;;;;;;;;;1020284;28;20039;-81
2023/03/20 02:00:33;;;;;;;5.05;3.05;;;;;;;;;;1021394;29;20024;-81
2023/03/20 02:01:05;;;;;;;4.72;3.40;;;;;;;;;;1018803;29;20106;-80
2023/03/20 02:01:37;;;;;;;4.65;3.35;;;;;;;;;;1018846;29;20023;-81
2023/03/20 02:02:09;;;;;;;3.75;3.10;;;;;;;;;;1019858;29;20027;-80
2023/03/20 02:02:40;;;;;;;5.00;3.15;;;;;;;;;;1019604;29;20551;-81
2023/03/20 02:03:11;;;;;;;5.13;3.05;;;;;;;;;;1018888;29;20158;-80
2023/03/20 02:03:44;;;;;;;3.70;2.85;;;;;;;;;;1022354;29;20023;-80
2023/03/20 02:04:15;;;;;;;3.40;3.10;;;;;;;;;;1018847;29;20150;-81
2023/03/20 02:04:50;;;;;;;4.60;3.08;;;;;;;;;;1019953;29;20104;-81
2023/03/20 02:05:22;;;;;;;4.07;2.95;;;;;;;;;;1023047;29;20081;-81
2023/03/20 02:05:54;;;;;;;3.95;3.05;;;;;;;;;;1024027;28;20026;-81
2023/03/20 02:06:25;;;;;;;4.15;3.08;;;;;;;;;;1026945;28;20073;-80
2023/03/20 02:06:56;;;;;;;4.68;3.15;;;;;;;;;;1027177;28;20069;-80
2023/03/20 02:07:27;;;;;;;5.18;2.97;;;;;;;;;;1027057;28;20015;-80
2023/03/20 02:08:10;;;;;;;4.82;2.80;;;;;;;;;;1022764;29;20054;-81
2023/03/20 02:08:46;;;;;;;3.60;2.90;;;;;;;;;;1023018;29;20063;-81
2023/03/20 02:09:18;;;;;;;3.63;2.70;;;;;;;;;;1022917;29;20487;-81
2023/03/20 02:09:50;;;;;;;3.95;2.85;;;;;;;;;;1025920;28;20024;-81
2023/03/20 02:10:21;;;;;;;3.88;2.45;;;;;;;;;;1026880;28;20023;-81
2023/03/20 02:10:53;;;;;;;2.90;2.60;;;;;;;;;;1022954;28;20027;-81
2023/03/20 02:11:25;;;;;;;4.55;2.75;;;;;;;;;;1023017;29;20027;-81
2023/03/20 02:11:57;;;;;;;4.90;2.83;;;;;;;;;;1019217;29;20447;-80
2023/03/20 02:12:28;;;;;;;4.25;2.88;;;;;;;;;;1019341;29;20035;-81
2023/03/20 02:13:00;;;;;;;5.85;2.85;;;;;;;;;;1022912;29;20663;-81
2023/03/20 02:13:31;;;;;;;3.83;2.95;;;;;;;;;;1023310;28;20651;-81
2023/03/20 02:14:03;;;;;;;3.20;2.85;;;;;;;;;;1027217;28;20970;-81
2023/03/20 02:14:35;;;;;;;4.15;2.88;;;;;;;;;;1025807;28;20026;-81
2023/03/20 02:15:07;;;;;;;3.58;2.55;;;;;;;;;;1023906;29;20178;-80
2023/03/20 02:15:54;;;;;;;4.07;3.03;;;;;;;;;;1022978;29;20023;-81
2023/03/20 02:16:26;;;;;;;4.93;2.80;;;;;;;;;;1022992;29;20439;-80
2023/03/20 02:16:57;;;;;;;3.85;2.50;;;;;;;;;;1027025;28;20022;-80
2023/03/20 02:17:28;;;;;;;3.72;2.90;;;;;;;;;;1026461;28;20163;-80
2023/03/20 02:17:59;;;;;;;3.53;2.55;;;;;;;;;;1027060;28;20035;-81
2023/03/20 02:18:31;;;;;;;2.75;2.30;;;;;;;;;;1026584;28;20030;-81
2023/03/20 02:19:02;;;;;;;4.43;2.58;;;;;;;;;;1022948;29;20645;-81
2023/03/20 02:19:42;;;;;;;5.47;2.75;;;;;;;;;;1023211;28;20049;-80
2023/03/20 02:20:13;;;;;;;3.70;2.50;;;;;;;;;;1023414;29;20022;-80
2023/03/20 02:21:00;;;;;;;3.22;2.60;;;;;;;;;;1023115;29;20034;-81
2023/03/20 02:21:46;;;;;;;3.60;2.15;;;;;;;;;;1026895;28;20069;-80
2023/03/20 02:22:20;;;;;;;3.63;2.47;;;;;;;;;;1026585;28;20497;-81
2023/03/20 02:23:00;;;;;;;4.05;2.70;;;;;;;;;;1019245;29;20118;-80
2023/03/20 02:23:55;;;;;;;3.17;2.05;;;;;;;;;;1018814;29;20035;-81
2023/03/20 02:24:32;;;;;;;2.47;2.20;;;;;;;;;;1019266;29;20024;-81
2023/03/20 02:25:03;;;;;;;4.15;2.28;;;;;;;;;;1022457;29;20023;-81
2023/03/20 02:25:37;;;;;;;2.33;1.98;;;;;;;;;;1022839;29;20472;-81
2023/03/20 02:26:24;;;;;;;2.58;2.17;;;;;;;;;;1025171;28;20019;-80
2023/03/20 02:27:03;;;;;;;3.40;2.40;;;;;;;;;;1027028;28;20019;-81
2023/03/20 02:27:52;;;;;;;4.25;2.33;;;;;;;;;;1025459;28;20575;-81
2023/03/20 02:28:52;;;;;;;2.60;2.40;;;;;;;;;;1022699;29;20015;-80
2023/03/20 02:29:44;;;;;;;3.28;2.30;;;;;;;;;;1020266;29;20019;-81
2023/03/20 02:30:33;;;;;;;4.00;2.15;;;;;;;;;;1022108;29;20048;-81
2023/03/20 02:31:30;;;;;;;3.60;2.03;;;;;;;;;;1024257;28;20023;-81
2023/03/20 02:32:07;;;;;;;3.15;2.25;;;;;;;;;;1019232;29;20686;-81
2023/03/20 02:32:38;;;;;;;2.80;2.30;;;;;;;;;;1019242;28;20474;-81
2023/03/20 02:33:36;;;;;;;4.03;2.50;;;;;;;;;;1019120;29;20480;-81
2023/03/20 02:34:26;;;;;;;2.75;2.10;;;;;;;;;;1023027;29;20634;-81
2023/03/20 02:34:57;;;;;;;3.42;2.47;;;;;;;;;;1023179;29;20027;-79
2023/03/20 02:35:57;;;;;;;4.03;2.50;;;;;;;;;;1023239;29;20030;-81
2023/03/20 02:36:27;;;;;;;4.38;2.65;;;;;;;;;;1010606;29;20273;-81
2023/03/20 02:37:13;;;;;;;5.30;2.60;;;;;;;;;;1007435;29;20049;-81
2023/03/20 02:38:03;;;;;;;3.78;2.45;;;;;;;;;;1002920;29;20262;-81
2023/03/20 02:38:37;;;;;;;3.03;2.10;;;;;;;;;;1018660;29;20144;-81
2023/03/20 02:39:23;;;;;;;4.40;2.47;;;;;;;;;;1022958;29;20030;-81
2023/03/20 02:39:54;;;;;;;2.42;1.98;;;;;;;;;;1026621;28;20034;-81
2023/03/20 02:40:33;;;;;;;5.10;2.60;;;;;;;;;;1022930;29;20031;-80
2023/03/20 02:41:21;;;;;;;4.45;2.60;;;;;;;;;;1022782;29;20289;-82
2023/03/20 02:41:52;;;;;;;2.33;2.00;;;;;;;;;;1022693;29;20031;-81
2023/03/20 02:42:32;;;;;;;4.20;2.53;;;;;;;;;;1024913;28;20032;-81
2023/03/20 02:43:21;;;;;;;4.63;2.33;;;;;;;;;;1026087;28;20298;-79
2023/03/20 02:44:10;;;;;;;3.97;2.47;;;;;;;;;;1026641;28;20030;-79
2023/03/20 02:44:45;;;;;;;5.88;2.50;;;;;;;;;;1022396;29;20042;-79
2023/03/20 02:45:27;;;;;;;2.92;2.15;;;;;;;;;;1022895;29;20380;-79
2023/03/20 02:46:04;;;;;;;3.67;2.63;;;;;;;;;;1022859;29;20411;-79
2023/03/20 02:46:40;;;;;;;3.28;2.30;;;;;;;;;;1025721;28;20026;-79
2023/03/20 02:47:11;;;;;;;4.75;2.95;;;;;;;;;;1022541;29;20030;-80
2023/03/20 02:48:04;;;;;;;2.78;2.08;;;;;;;;;;1018921;29;20035;-80
2023/03/20 02:48:35;;;;;;;3.85;2.75;;;;;;;;;;1009571;29;20025;-80
2023/03/20 02:49:17;;;;;;;4.90;2.80;;;;;;;;;;1015510;29;20128;-80
2023/03/20 02:50:07;;;;;;;3.28;2.45;;;;;;;;;;1018804;29;20272;-80
2023/03/20 02:50:55;;;;;;;3.38;2.47;;;;;;;;;;1022503;28;20450;-79
2023/03/20 02:51:35;;;;;;;4.05;2.90;;;;;;;;;;1025007;28;20030;-80
2023/03/20 02:52:18;;;;;;;4.20;2.65;;;;;;;;;;1023209;29;20027;-80
2023/03/20 02:52:58;;;;;;;5.65;3.13;;;;;;;;;;1023166;29;20039;-80
2023/03/20 02:53:32;;;;;;;3.58;2.60;;;;;;;;;;1026443;28;20064;-79
2023/03/20 02:54:26;;;;;;;3.40;2.67;;;;;;;;;;1023810;28;20840;-82
2023/03/20 02:55:00;;;;;;;4.18;2.90;;;;;;;;;;1011145;29;20033;-79
2023/03/20 02:55:50;;;;;;;3.85;2.65;;;;;;;;;;1018566;29;20079;-80
2023/03/20 02:56:32;;;;;;;4.95;2.42;;;;;;;;;;1018937;29;20067;-80
2023/03/20 02:57:23;;;;;;;3.53;2.45;;;;;;;;;;1022883;29;20019;-79
2023/03/20 02:58:07;;;;;;;3.47;2.33;;;;;;;;;;1023276;29;20027;-79
2023/03/20 02:58:40;;;;;;;3.60;2.47;;;;;;;;;;1022830;29;20027;-79
2023/03/20 02:59:15;;;;;;;4.15;3.03;;;;;;;;;;1023112;29;20042;-79
2023/03/20 02:59:49;;;;;;;3.67;2.35;;;;;;;;;;1022733;28;20030;-80
2023/03/20 03:00:28;;;;;;;4.47;2.75;;;;;;;;;;1022925;29;20034;-79
2023/03/20 03:01:02;;;;;;;4.13;2.67;;;;;;;;;;1022795;29;20023;-81
2023/03/20 03:01:39;;;;;;;3.42;2.72;;;;;;;;;;1022713;29;20011;-80
2023/03/20 03:02:16;;;;;;;4.85;3.40;;;;;;;;;;1023037;29;20023;-79
2023/03/20 03:02:50;;;;;;;4.03;2.90;;;;;;;;;;1022794;29;20240;-82
2023/03/20 03:03:26;;;;;;;3.38;2.70;;;;;;;;;;1024770;28;20531;-81
2023/03/20 03:04:00;;;;;;;5.70;2.70;;;;;;;;;;1026401;28;20015;-80
2023/03/20 03:04:33;;;;;;;4.15;3.00;;;;;;;;;;1026701;28;20007;-81
2023/03/20 03:05:15;;;;;;;4.13;3.17;;;;;;;;;;1026768;28;20019;-80
2023/03/20 03:06:09;;;;;;;3.97;2.80;;;;;;;;;;1020846;28;20019;-80
2023/03/20 03:06:41;;;;;;;3.65;2.95;;;;;;;;;;1018321;29;20016;-80
2023/03/20 03:07:13;;;;;;;4.93;2.92;;;;;;;;;;1019948;28;20513;-80
2023/03/20 03:07:45;;;;;;;5.53;3.03;;;;;;;;;;1023242;29;20090;-80
2023/03/20 03:08:19;;;;;;;4.68;3.08;;;;;;;;;;1022630;29;20137;-80
2023/03/20 03:08:54;;;;;;;3.92;3.47;;;;;;;;;;1022882;28;20022;-80
2023/03/20 03:09:29;;;;;;;5.18;3.55;;;;;;;;;;1023071;28;20061;-81
2023/03/20 03:10:02;;;;;;;3.08;2.78;;;;;;;;;;1023166;28;20027;-80
2023/03/20 03:10:47;;;;;;;4.75;3.17;;;;;;;;;;1026894;28;20696;-79
2023/03/20 03:11:18;;;;;;;4.82;3.13;;;;;;;;;;1026886;28;20026;-79
2023/03/20 03:12:07;;;;;;;5.00;3.67;;;;;;;;;;1026504;28;20117;-80
2023/03/20 03:12:40;;;;;;;3.88;3.33;;;;;;;;;;1026503;28;20077;-79
2023/03/20 03:13:14;;;;;;;5.35;3.45;;;;;;;;;;1026529;28;20041;-80
2023/03/20 03:13:48;;;;;;;4.85;3.22;;;;;;;;;;1019383;29;20028;-78
2023/03/20 03:14:24;;;;;;;4.28;3.38;;;;;;;;;;1022488;29;20083;-79
2023/03/20 03:14:57;;;;;;;4.40;2.95;;;;;;;;;;1022962;29;20538;-81
2023/03/20 03:15:36;;;;;;;4.15;3.17;;;;;;;;;;1023073;29;20068;-79
2023/03/20 03:16:12;;;;;;;4.03;3.40;;;;;;;;;;1023416;29;20033;-79
2023/03/20 03:16:44;;;;;;;4.72;3.35;;;;;;;;;;1022901;29;20034;-81
2023/03/20 03:17:16;;;;;;;4.70;3.15;;;;;;;;;;1022741;29;20078;-81
2023/03/20 03:17:48;;;;;;;4.68;3.60;;;;;;;;;;1018894;29;20703;-81
2023/03/20 03:18:21;;;;;;;5.03;3.33;;;;;;;;;;1019461;29;20027;-80
2023/03/20 03:18:55;;;;;;;4.05;3.50;;;;;;;;;;1018663;29;20027;-80
2023/03/20 03:19:28;;;;;;;5.07;3.38;;;;;;;;;;1022540;29;20518;-80
2023/03/20 03:20:03;;;;;;;4.05;3.33;;;;;;;;;;1022679;29;20056;-81
2023/03/20 03:20:36;;;;;;;4.88;3.95;;;;;;;;;;1024032;28;20073;-80
2023/03/20 03:21:08;;;;;;;4.93;3.50;;;;;;;;;;1026847;28;20057;-79
2023/03/20 03:21:40;;;;;;;5.10;4.13;;;;;;;;;;1026769;28;20106;-80
2023/03/20 03:22:12;;;;;;;5.95;3.72;;;;;;;;;;1026483;28;20022;-80
2023/03/20 03:22:43;;;;;;;4.07;3.33;;;;;;;;;;1023741;28;20015;-79
2023/03/20 03:23:19;;;;;;;5.00;3.63;;;;;;;;;;1026071;28;20029;-78
2023/03/20 03:23:52;;;;;;;7.22;3.65;;;;;;;;;;1022571;28;20217;-79
2023/03/20 03:24:33;;;;;;;5.32;3.65;;;;;;;;;;1025221;28;20045;-80
2023/03/20 03:25:05;;;;;;;6.38;4.00;;;;;;;;;;1026159;28;20030;-81
2023/03/20 03:25:39;;;;;;;5.13;4.20;;;;;;;;;;1026774;28;20089;-79
2023/03/20 03:26:14;;;;;;;5.45;3.72;;;;;;;;;;1024653;28;20094;-79
2023/03/20 03:26:45;;;;;;;5.75;3.75;;;;;;;;;;1026575;28;20035;-81
2023/03/20 03:27:17;;;;;;;5.35;3.55;;;;;;;;;;1026422;28;20450;-79